createdAt,value
2019-01-20T00:01:20.261Z,1017.51
2019-01-20T00:03:20.259Z,1017.50
2019-01-20T00:07:20.253Z,1017.47
2019-01-20T00:09:20.248Z,1017.47
2019-01-20T00:13:20.284Z,1017.46
2019-01-20T00:15:20.278Z,1017.41
2019-01-20T00:19:20.260Z,1017.46
2019-01-20T00:21:20.267Z,1017.44
2019-01-20T00:25:20.264Z,1017.39
2019-01-20T00:27:20.290Z,1017.44
2019-01-20T00:31:20.288Z,1017.42
2019-01-20T00:33:20.298Z,1017.41
2019-01-20T00:37:20.271Z,1017.40
2019-01-20T00:39:20.279Z,1017.42
2019-01-20T00:43:20.270Z,1017.40
2019-01-20T00:45:20.317Z,1017.41
2019-01-20T00:49:20.277Z,1017.41
2019-01-20T00:51:20.271Z,1017.40
2019-01-20T00:55:20.310Z,1017.43
2019-01-20T00:57:20.304Z,1017.42
2019-01-20T01:01:20.279Z,1017.40
2019-01-20T01:05:20.299Z,1017.41
2019-01-20T01:07:20.300Z,1017.45
2019-01-20T01:11:20.323Z,1017.37
2019-01-20T01:13:20.287Z,1017.45
2019-01-20T01:17:20.291Z,1017.44
2019-01-20T01:19:20.277Z,1017.40
2019-01-20T01:23:20.318Z,1017.42
2019-01-20T01:25:20.295Z,1017.40
2019-01-20T01:29:20.320Z,1017.41
2019-01-20T01:31:20.288Z,1017.43
2019-01-20T01:35:20.324Z,1017.40
2019-01-20T01:37:20.354Z,1017.38
2019-01-20T01:41:20.331Z,1017.39
2019-01-20T01:43:20.308Z,1017.49
2019-01-20T01:47:20.301Z,1017.42
2019-01-20T01:49:25.519Z,1017.43
2019-01-20T01:53:20.344Z,1017.51
2019-01-20T01:55:20.308Z,1017.52
2019-01-20T01:59:20.341Z,1017.57
2019-01-20T02:01:20.386Z,1017.60
2019-01-20T02:05:20.323Z,1017.56
2019-01-20T02:07:20.303Z,1017.55
2019-01-20T02:11:20.310Z,1017.53
2019-01-20T02:13:20.343Z,1017.50
2019-01-20T02:17:20.367Z,1017.48
2019-01-20T02:19:20.328Z,1017.53
2019-01-20T02:23:20.339Z,1017.52
2019-01-20T02:25:25.500Z,1017.55
2019-01-20T02:29:20.346Z,1017.51
2019-01-20T02:31:20.326Z,1017.48
2019-01-20T02:35:25.932Z,1017.46
2019-01-20T02:37:20.333Z,1017.40
2019-01-20T02:41:25.558Z,1017.40
2019-01-20T02:43:25.523Z,1017.38
2019-01-20T02:47:25.804Z,1017.40
2019-01-20T02:49:25.579Z,1017.36
2019-01-20T02:53:20.509Z,1017.43
2019-01-20T02:55:25.561Z,1017.43
2019-01-20T02:59:20.378Z,1017.47
2019-01-20T03:01:20.359Z,1017.46
2019-01-20T03:05:20.515Z,1017.53
2019-01-20T03:07:20.522Z,1017.55
2019-01-20T03:11:20.398Z,1017.57
2019-01-20T03:13:20.392Z,1017.50
2019-01-20T03:17:20.376Z,1017.57
2019-01-20T03:19:20.512Z,1017.63
2019-01-20T03:23:20.553Z,1017.58
2019-01-20T03:25:20.399Z,1017.58
2019-01-20T03:29:20.401Z,1017.62
2019-01-20T03:31:20.456Z,1017.53
2019-01-20T03:35:20.536Z,1017.55
2019-01-20T03:37:20.402Z,1017.52
2019-01-20T03:41:25.829Z,1017.58
2019-01-20T03:43:23.306Z,1017.50
2019-01-20T03:47:21.838Z,1017.58
2019-01-20T03:49:20.403Z,1017.56
2019-01-20T03:53:23.322Z,1017.61
2019-01-20T03:55:23.308Z,1017.63
2019-01-20T03:59:20.497Z,1017.67
2019-01-20T04:01:20.549Z,1017.66
2019-01-20T04:05:20.576Z,1017.70
2019-01-20T04:07:20.439Z,1017.70
2019-01-20T04:11:20.514Z,1017.73
2019-01-20T04:13:20.552Z,1017.66
2019-01-20T04:17:20.397Z,1017.65
2019-01-20T04:19:20.491Z,1017.64
2019-01-20T04:23:20.429Z,1017.67
2019-01-20T04:25:23.092Z,1017.64
2019-01-20T04:29:25.589Z,1017.64
2019-01-20T04:31:20.528Z,1017.68
2019-01-20T04:35:23.348Z,1017.63
2019-01-20T04:37:20.493Z,1017.60
2019-01-20T04:41:20.428Z,1017.72
2019-01-20T04:43:25.571Z,1017.66
2019-01-20T04:47:20.399Z,1017.69
2019-01-20T04:49:20.422Z,1017.73
2019-01-20T04:53:25.621Z,1017.76
2019-01-20T04:55:20.658Z,1017.72
2019-01-20T04:59:20.429Z,1017.73
2019-01-20T05:01:20.429Z,1017.66
2019-01-20T05:05:20.652Z,1017.61
2019-01-20T05:07:20.643Z,1017.67
2019-01-20T05:11:20.517Z,1017.60
2019-01-20T05:13:20.571Z,1017.70
2019-01-20T05:17:23.358Z,1017.70
2019-01-20T05:19:20.438Z,1017.71
2019-01-20T05:23:20.417Z,1017.75
2019-01-20T05:25:20.553Z,1017.74
2019-01-20T05:29:20.476Z,1017.82
2019-01-20T05:31:20.447Z,1017.78
2019-01-20T05:35:20.428Z,1017.78
2019-01-20T05:37:20.412Z,1017.78
2019-01-20T05:41:20.596Z,1017.84
2019-01-20T05:43:20.411Z,1017.90
2019-01-20T05:47:20.409Z,1017.81
2019-01-20T05:49:24.878Z,1017.80
2019-01-20T05:53:20.431Z,1017.84
2019-01-20T05:55:20.446Z,1017.91
2019-01-20T05:59:20.403Z,1017.88
2019-01-20T06:01:20.419Z,1017.94
2019-01-20T06:05:20.407Z,1017.85
2019-01-20T06:07:20.417Z,1017.89
2019-01-20T06:11:30.151Z,1017.99
2019-01-20T06:13:20.437Z,1018.01
2019-01-20T06:17:20.456Z,1017.94
2019-01-20T06:19:20.426Z,1017.95
2019-01-20T06:23:20.461Z,1018.00
2019-01-20T06:25:20.446Z,1017.98
2019-01-20T06:29:20.484Z,1018.00
2019-01-20T06:31:20.443Z,1018.00
2019-01-20T06:35:20.449Z,1018.12
2019-01-20T06:37:20.438Z,1018.03
2019-01-20T06:41:20.459Z,1018.12
2019-01-20T06:43:21.292Z,1018.14
2019-01-20T06:47:20.492Z,1018.22
2019-01-20T06:49:20.445Z,1018.28
2019-01-20T06:53:20.453Z,1018.27
2019-01-20T06:55:21.814Z,1018.27
2019-01-20T06:59:20.508Z,1018.27
2019-01-20T07:01:20.477Z,1018.35
2019-01-20T07:05:20.477Z,1018.32
2019-01-20T07:07:20.452Z,1018.35
2019-01-20T07:11:20.448Z,1018.44
2019-01-20T07:13:20.511Z,1018.49
2019-01-20T07:17:20.457Z,1018.46
2019-01-20T07:19:22.571Z,1018.53
2019-01-20T07:23:20.470Z,1018.53
2019-01-20T07:25:20.473Z,1018.63
2019-01-20T07:29:20.478Z,1018.66
2019-01-20T07:31:20.506Z,1018.65
2019-01-20T07:35:20.470Z,1018.72
2019-01-20T07:37:20.466Z,1018.73
2019-01-20T07:41:20.490Z,1018.71
2019-01-20T07:43:20.473Z,1018.69
2019-01-20T07:49:20.475Z,1018.81
2019-01-20T07:51:20.489Z,1018.85
2019-01-20T07:55:20.485Z,1019.01
2019-01-20T07:57:20.489Z,1019.00
2019-01-20T08:01:20.486Z,1019.05
2019-01-20T08:03:20.511Z,1019.04
2019-01-20T08:09:20.531Z,1019.08
2019-01-20T08:11:20.487Z,1019.17
2019-01-20T08:15:20.489Z,1019.21
2019-01-20T08:17:20.505Z,1019.23
2019-01-20T08:21:20.562Z,1019.34
2019-01-20T08:23:20.544Z,1019.34
2019-01-20T08:27:20.486Z,1019.32
2019-01-20T08:29:20.544Z,1019.38
2019-01-20T08:33:20.533Z,1019.45
2019-01-20T08:35:20.528Z,1019.49
2019-01-20T08:39:20.540Z,1019.48
2019-01-20T08:41:20.514Z,1019.50
2019-01-20T08:45:20.499Z,1019.53
2019-01-20T08:47:20.556Z,1019.58
2019-01-20T08:51:20.490Z,1019.53
2019-01-20T08:53:20.496Z,1019.62
2019-01-20T08:57:20.512Z,1019.65
2019-01-20T08:59:20.490Z,1019.68
2019-01-20T09:03:20.512Z,1019.71
2019-01-20T09:05:20.501Z,1019.79
2019-01-20T09:09:20.515Z,1019.75
2019-01-20T09:11:22.464Z,1019.74
2019-01-20T09:15:20.496Z,1019.78
2019-01-20T09:17:25.734Z,1019.75
2019-01-20T09:21:20.531Z,1019.79
2019-01-20T09:23:20.534Z,1019.76
2019-01-20T09:27:25.727Z,1019.72
2019-01-20T09:29:20.583Z,1019.74
2019-01-20T09:33:24.712Z,1019.88
2019-01-20T09:35:20.562Z,1020.00
2019-01-20T09:39:20.567Z,1019.95
2019-01-20T09:41:20.517Z,1020.00
2019-01-20T09:45:20.521Z,1020.04
2019-01-20T09:47:20.519Z,1020.14
2019-01-20T09:51:20.546Z,1020.19
2019-01-20T09:53:20.564Z,1020.18
2019-01-20T09:57:24.978Z,1020.18
2019-01-20T10:01:20.622Z,1020.17
2019-01-20T10:03:20.555Z,1020.19
2019-01-20T10:07:25.772Z,1020.21
2019-01-20T10:09:20.563Z,1020.25
2019-01-20T10:13:20.537Z,1020.19
2019-01-20T10:15:20.554Z,1020.20
2019-01-20T10:19:20.545Z,1020.31
2019-01-20T10:21:20.572Z,1020.40
2019-01-20T10:25:20.585Z,1020.24
2019-01-20T10:27:20.599Z,1020.25
2019-01-20T10:31:20.559Z,1020.47
2019-01-20T10:33:20.570Z,1020.38
2019-01-20T10:37:20.629Z,1020.29
2019-01-20T10:39:20.583Z,1020.25
2019-01-20T10:43:20.583Z,1020.43
2019-01-20T10:45:20.592Z,1020.30
2019-01-20T10:49:20.599Z,1020.35
2019-01-20T10:51:20.598Z,1020.41
2019-01-20T10:55:20.587Z,1020.45
2019-01-20T10:57:25.042Z,1020.36
2019-01-20T11:01:20.634Z,1020.36
2019-01-20T11:03:32.847Z,1020.35
2019-01-20T11:11:20.606Z,1020.73
2019-01-20T11:13:20.591Z,1020.79
2019-01-20T11:17:20.595Z,1020.91
2019-01-20T11:19:20.626Z,1020.87
2019-01-20T11:23:25.286Z,1020.87
2019-01-20T11:25:20.612Z,1020.74
2019-01-20T11:29:20.599Z,1020.88
2019-01-20T11:31:20.626Z,1020.93
2019-01-20T11:35:20.654Z,1020.86
2019-01-20T11:37:20.650Z,1020.88
2019-01-20T11:41:20.621Z,1020.87
2019-01-20T11:43:20.614Z,1020.88
2019-01-20T11:47:20.683Z,1020.91
2019-01-20T11:49:20.648Z,1020.93
2019-01-20T11:53:20.651Z,1021.03
2019-01-20T11:55:20.638Z,1021.01
2019-01-20T11:59:20.611Z,1021.06
2019-01-20T12:01:25.620Z,1021.13
2019-01-20T12:05:21.471Z,1021.09
2019-01-20T12:07:20.615Z,1021.12
2019-01-20T12:11:20.658Z,1021.10
2019-01-20T12:13:20.620Z,1021.11
2019-01-20T12:17:25.638Z,1021.06
2019-01-20T12:19:20.613Z,1021.07
2019-01-20T12:23:20.637Z,1021.11
2019-01-20T12:25:20.629Z,1021.08
2019-01-20T12:29:20.642Z,1021.09
2019-01-20T12:31:20.649Z,1021.05
2019-01-20T12:35:25.691Z,1021.01
2019-01-20T12:37:20.609Z,1021.05
2019-01-20T12:41:20.648Z,1021.04
2019-01-20T12:43:20.631Z,1021.04
2019-01-20T12:47:20.646Z,1021.13
2019-01-20T12:49:20.622Z,1021.13
2019-01-20T12:53:20.635Z,1021.16
2019-01-20T12:55:25.681Z,1021.16
2019-01-20T12:59:20.637Z,1021.11
2019-01-20T13:01:24.427Z,1021.14
2019-01-20T13:05:25.625Z,1021.10
2019-01-20T13:07:20.635Z,1021.14
2019-01-20T13:11:20.611Z,1021.09
2019-01-20T13:13:20.650Z,1021.08
2019-01-20T13:17:20.648Z,1021.09
2019-01-20T13:19:20.643Z,1021.08
2019-01-20T13:23:25.199Z,1021.07
2019-01-20T13:25:20.633Z,1021.11
2019-01-20T13:29:28.468Z,1021.11
2019-01-20T13:31:25.079Z,1021.12
2019-01-20T13:35:20.664Z,1021.06
2019-01-20T13:37:20.653Z,1021.12
2019-01-20T13:41:20.630Z,1021.16
2019-01-20T13:43:20.658Z,1021.16
2019-01-20T13:47:25.718Z,1021.18
2019-01-20T13:49:20.687Z,1021.16
2019-01-20T13:53:20.664Z,1021.28
2019-01-20T13:55:25.302Z,1021.27
2019-01-20T13:59:20.640Z,1021.25
2019-01-20T14:01:25.785Z,1021.26
2019-01-20T14:05:20.638Z,1021.29
2019-01-20T14:07:20.670Z,1021.27
2019-01-20T14:11:20.662Z,1021.29
2019-01-20T14:13:20.634Z,1021.27
2019-01-20T14:19:21.877Z,1021.23
2019-01-20T14:21:20.628Z,1021.25
2019-01-20T14:25:25.662Z,1021.13
2019-01-20T14:27:20.659Z,1021.20
2019-01-20T14:31:20.648Z,1021.35
2019-01-20T14:33:20.662Z,1021.37
2019-01-20T14:37:20.653Z,1021.24
2019-01-20T14:39:20.680Z,1021.23
2019-01-20T14:43:20.631Z,1021.27
2019-01-20T14:45:25.838Z,1021.35
2019-01-20T14:49:20.626Z,1021.45
2019-01-20T14:51:20.650Z,1021.48
2019-01-20T14:55:20.615Z,1021.45
2019-01-20T14:57:20.675Z,1021.48
2019-01-20T15:01:25.693Z,1021.48
2019-01-20T15:03:20.663Z,1021.49
2019-01-20T15:07:20.624Z,1021.55
2019-01-20T15:09:20.655Z,1021.56
2019-01-20T15:13:20.645Z,1021.51
2019-01-20T15:15:20.673Z,1021.50
2019-01-20T15:19:21.836Z,1021.52
2019-01-20T15:21:20.674Z,1021.56
2019-01-20T15:25:24.492Z,1021.57
2019-01-20T15:27:25.638Z,1021.63
2019-01-20T15:31:20.672Z,1021.59
2019-01-20T15:33:20.657Z,1021.62
2019-01-20T15:37:20.704Z,1021.63
2019-01-20T15:39:20.692Z,1021.63
2019-01-20T15:43:20.673Z,1021.76
2019-01-20T15:45:20.678Z,1021.76
2019-01-20T15:49:20.669Z,1021.74
2019-01-20T15:51:20.681Z,1021.78
2019-01-20T15:55:20.638Z,1021.86
2019-01-20T15:57:20.642Z,1021.88
2019-01-20T16:01:20.683Z,1021.84
2019-01-20T16:03:20.703Z,1021.81
2019-01-20T16:07:25.439Z,1021.86
2019-01-20T16:09:20.674Z,1021.88
2019-01-20T16:13:20.654Z,1021.89
2019-01-20T16:15:24.654Z,1021.87
2019-01-20T16:19:20.707Z,1022.01
2019-01-20T16:21:20.657Z,1022.07
2019-01-20T16:25:20.686Z,1022.15
2019-01-20T16:27:20.688Z,1022.17
2019-01-20T16:31:20.691Z,1022.22
2019-01-20T16:33:24.957Z,1022.24
2019-01-20T16:37:20.709Z,1022.26
2019-01-20T16:39:20.685Z,1022.30
2019-01-20T16:43:20.664Z,1022.37
2019-01-20T16:45:20.679Z,1022.32
2019-01-20T16:49:20.671Z,1022.42
2019-01-20T16:51:25.077Z,1022.44
2019-01-20T16:55:20.686Z,1022.43
2019-01-20T16:57:20.699Z,1022.43
2019-01-20T17:01:20.674Z,1022.48
2019-01-20T17:03:20.677Z,1022.54
2019-01-20T17:07:20.702Z,1022.62
2019-01-20T17:09:20.702Z,1022.61
2019-01-20T17:13:20.666Z,1022.66
2019-01-20T17:15:27.505Z,1022.69
2019-01-20T17:19:25.140Z,1022.64
2019-01-20T17:21:20.734Z,1022.67
2019-01-20T17:25:20.704Z,1022.65
2019-01-20T17:27:20.717Z,1022.67
2019-01-20T17:31:20.760Z,1022.68
2019-01-20T17:33:26.295Z,1022.75
2019-01-20T17:37:20.681Z,1022.70
2019-01-20T17:39:20.683Z,1022.76
2019-01-20T17:43:20.706Z,1022.85
2019-01-20T17:45:21.782Z,1022.87
2019-01-20T17:49:20.751Z,1022.91
2019-01-20T17:51:20.777Z,1022.91
2019-01-20T17:55:20.730Z,1022.83
2019-01-20T17:57:20.724Z,1022.89
2019-01-20T18:01:23.659Z,1022.97
2019-01-20T18:05:25.758Z,1023.02
2019-01-20T18:07:21.671Z,1023.05
2019-01-20T18:11:20.746Z,1023.05
2019-01-20T18:13:20.714Z,1023.10
2019-01-20T18:17:20.957Z,1023.00
2019-01-20T18:19:20.915Z,1023.09
2019-01-20T18:25:20.728Z,1023.13
2019-01-20T18:27:20.829Z,1023.13
2019-01-20T18:31:20.756Z,1023.20
2019-01-20T18:33:20.882Z,1023.24
2019-01-20T18:37:22.927Z,1023.31
2019-01-20T18:39:20.868Z,1023.35
2019-01-20T18:43:20.702Z,1023.46
2019-01-20T18:45:20.894Z,1023.49
2019-01-20T18:49:20.857Z,1023.45
2019-01-20T18:51:20.840Z,1023.43
2019-01-20T18:55:29.640Z,1023.51
2019-01-20T18:57:25.727Z,1023.51
2019-01-20T19:01:20.885Z,1023.51
2019-01-20T19:03:25.851Z,1023.54
2019-01-20T19:07:22.128Z,1023.48
2019-01-20T19:09:20.950Z,1023.50
2019-01-20T19:13:25.678Z,1023.47
2019-01-20T19:15:23.636Z,1023.48
2019-01-20T19:19:22.097Z,1023.51
2019-01-20T19:21:20.933Z,1023.54
2019-01-20T19:27:42.348Z,1023.51
2019-01-20T19:29:20.803Z,1023.62
2019-01-20T19:33:40.572Z,1023.61
2019-01-20T19:35:25.389Z,1023.67
2019-01-20T19:39:20.785Z,1023.74
2019-01-20T19:41:20.913Z,1023.69
2019-01-20T19:45:20.760Z,1023.78
2019-01-20T19:47:25.254Z,1023.82
2019-01-20T19:51:25.945Z,1023.88
2019-01-20T19:53:24.003Z,1023.92
2019-01-20T19:57:25.669Z,1024.00
2019-01-20T19:59:25.947Z,1024.10
2019-01-20T20:03:20.729Z,1024.03
2019-01-20T20:05:21.036Z,1024.12
2019-01-20T20:09:20.767Z,1024.14
2019-01-20T20:11:21.029Z,1024.16
2019-01-20T20:15:20.760Z,1024.16
2019-01-20T20:17:20.782Z,1024.26
2019-01-20T20:21:23.420Z,1024.33
2019-01-20T20:23:20.776Z,1024.30
2019-01-20T20:27:21.114Z,1024.27
2019-01-20T20:29:20.741Z,1024.35
2019-01-20T20:33:20.767Z,1024.47
2019-01-20T20:35:25.243Z,1024.57
2019-01-20T20:39:23.078Z,1024.60
2019-01-20T20:41:20.763Z,1024.65
2019-01-20T20:45:20.771Z,1024.60
2019-01-20T20:47:28.962Z,1024.57
2019-01-20T20:51:20.762Z,1024.61
2019-01-20T20:53:20.792Z,1024.70
2019-01-20T20:57:25.968Z,1024.69
2019-01-20T20:59:20.741Z,1024.68
2019-01-20T21:05:25.487Z,1024.61
2019-01-20T21:07:20.824Z,1024.61
2019-01-20T21:11:25.358Z,1024.51
2019-01-20T21:13:26.386Z,1024.55
2019-01-20T21:17:21.162Z,1024.49
2019-01-20T21:19:25.415Z,1024.39
2019-01-20T21:23:20.734Z,1024.45
2019-01-20T21:25:20.791Z,1024.43
2019-01-20T21:29:20.779Z,1024.40
2019-01-20T21:31:20.768Z,1024.43
2019-01-20T21:35:20.754Z,1024.52
2019-01-20T21:37:20.776Z,1024.55
2019-01-20T21:41:20.744Z,1024.56
2019-01-20T21:43:25.808Z,1024.50
2019-01-20T21:47:20.750Z,1024.57
2019-01-20T21:49:20.808Z,1024.56
2019-01-20T21:53:21.507Z,1024.66
2019-01-20T21:55:21.833Z,1024.69
2019-01-20T21:59:20.781Z,1024.71
2019-01-20T22:01:20.753Z,1024.71
2019-01-20T22:05:25.827Z,1024.71
2019-01-20T22:07:20.774Z,1024.73
2019-01-20T22:11:24.550Z,1024.80
2019-01-20T22:13:20.817Z,1024.86
2019-01-20T22:17:20.738Z,1024.95
2019-01-20T22:19:20.804Z,1024.91
2019-01-20T22:23:20.784Z,1024.92
2019-01-20T22:25:20.808Z,1025.04
2019-01-20T22:29:20.770Z,1025.06
2019-01-20T22:31:20.769Z,1025.07
2019-01-20T22:35:20.752Z,1025.11
2019-01-20T22:37:22.628Z,1025.09
2019-01-20T22:41:20.783Z,1025.11
2019-01-20T22:43:20.921Z,1025.12
2019-01-20T22:47:20.792Z,1025.15
2019-01-20T22:49:20.757Z,1025.17
2019-01-20T22:53:20.776Z,1025.16
2019-01-20T22:55:20.754Z,1025.24
2019-01-20T22:59:20.841Z,1025.16
2019-01-20T23:01:25.876Z,1025.17
2019-01-20T23:07:20.796Z,1025.23
2019-01-20T23:09:20.793Z,1025.26
2019-01-20T23:13:20.885Z,1025.30
2019-01-20T23:15:20.828Z,1025.29
2019-01-20T23:19:20.811Z,1025.31
2019-01-20T23:21:20.780Z,1025.29
2019-01-20T23:25:20.761Z,1025.11
2019-01-20T23:27:20.796Z,1025.17
2019-01-20T23:33:20.825Z,1025.20
2019-01-20T23:35:20.771Z,1025.24
2019-01-20T23:39:20.811Z,1025.18
2019-01-20T23:41:25.777Z,1025.22
2019-01-20T23:45:25.886Z,1025.24
2019-01-20T23:47:20.819Z,1025.24
2019-01-20T23:51:20.812Z,1025.26
2019-01-20T23:53:20.797Z,1025.30
2019-01-20T23:57:20.837Z,1025.21
2019-01-20T23:59:25.829Z,1025.24
